createdAt,value
2022-08-28T00:00:44.867Z,101290.28
2022-08-28T00:03:31.141Z,101299.31
2022-08-28T00:06:16.648Z,101299.75
2022-08-28T00:09:01.971Z,101300.38
2022-08-28T00:11:48.323Z,101304.78
2022-08-28T00:14:34.606Z,101295.66
2022-08-28T00:17:19.898Z,101309.22
2022-08-28T00:20:07.793Z,101316.22
2022-08-28T00:22:55.420Z,101303.75
2022-08-28T00:25:40.892Z,101285.03
2022-08-28T00:28:26.401Z,101309.88
2022-08-28T00:31:13.175Z,101310.84
2022-08-28T00:33:58.974Z,101308.59
2022-08-28T00:36:45.112Z,101318.56
2022-08-28T00:39:31.138Z,101313.47
2022-08-28T00:42:17.332Z,101315.84
2022-08-28T00:45:02.681Z,101314.16
2022-08-28T00:47:48.257Z,101316.00
2022-08-28T00:51:00.143Z,101318.22
2022-08-28T00:53:46.178Z,101315.31
2022-08-28T00:56:32.408Z,101306.63
2022-08-28T00:59:20.667Z,101309.03
2022-08-28T01:02:07.701Z,101310.34
2022-08-28T01:04:54.193Z,101308.75
2022-08-28T01:07:39.419Z,101308.34
2022-08-28T01:10:27.886Z,101311.91
2022-08-28T01:13:14.816Z,101307.91
2022-08-28T01:16:01.356Z,101312.53
2022-08-28T01:18:49.171Z,101307.19
2022-08-28T01:22:07.354Z,101303.84
2022-08-28T01:24:55.956Z,101313.00
2022-08-28T01:27:42.035Z,101324.78
2022-08-28T01:30:29.495Z,101326.56
2022-08-28T01:33:15.832Z,101320.75
2022-08-28T01:36:01.508Z,101323.13
2022-08-28T01:38:52.757Z,101315.84
2022-08-28T01:41:45.725Z,101321.03
2022-08-28T01:44:31.078Z,101313.41
2022-08-28T01:47:16.878Z,101318.59
2022-08-28T01:50:02.283Z,101312.22
2022-08-28T01:52:47.927Z,101311.91
2022-08-28T01:55:35.721Z,101309.03
2022-08-28T01:58:23.008Z,101310.38
2022-08-28T02:01:13.512Z,101308.75
2022-08-28T02:04:00.161Z,101311.13
2022-08-28T02:06:45.905Z,101309.84
2022-08-28T02:09:31.960Z,101308.31
2022-08-28T02:12:17.709Z,101309.91
2022-08-28T02:15:04.664Z,101311.03
2022-08-28T02:17:50.021Z,101314.28
2022-08-28T02:20:35.616Z,101322.50
2022-08-28T02:23:21.151Z,101320.47
2022-08-28T02:26:06.634Z,101318.78
2022-08-28T02:28:51.854Z,101325.66
2022-08-28T02:31:37.450Z,101327.03
2022-08-28T02:34:23.585Z,101322.09
2022-08-28T02:37:11.365Z,101319.53
2022-08-28T02:39:58.087Z,101322.25
2022-08-28T02:42:44.446Z,101314.47
2022-08-28T02:45:30.002Z,101311.25
2022-08-28T02:48:16.901Z,101315.72
2022-08-28T02:51:06.528Z,101324.19
2022-08-28T02:53:52.307Z,101317.84
2022-08-28T02:56:37.540Z,101328.28
2022-08-28T02:59:23.162Z,101322.81
2022-08-28T03:02:09.085Z,101322.63
2022-08-28T03:04:55.418Z,101325.97
2022-08-28T03:07:40.724Z,101310.25
2022-08-28T03:10:26.329Z,101324.97
2022-08-28T03:13:12.000Z,101325.19
2022-08-28T03:16:12.169Z,101329.84
2022-08-28T03:18:57.833Z,101332.94
2022-08-28T03:21:43.403Z,101331.53
2022-08-28T03:24:28.928Z,101333.47
2022-08-28T03:27:14.545Z,101327.03
2022-08-28T03:30:00.202Z,101318.53
2022-08-28T03:32:45.875Z,101312.31
2022-08-28T03:35:31.668Z,101336.09
2022-08-28T03:38:17.697Z,101343.03
2022-08-28T03:41:03.536Z,101344.72
2022-08-28T03:43:49.306Z,101342.38
2022-08-28T03:46:35.090Z,101335.56
2022-08-28T03:49:20.565Z,101330.28
2022-08-28T03:52:06.558Z,101329.28
2022-08-28T03:54:52.657Z,101322.47
2022-08-28T03:57:39.115Z,101338.66
2022-08-28T04:00:25.373Z,101336.53
2022-08-28T04:03:14.088Z,101331.88
2022-08-28T04:05:59.721Z,101355.50
2022-08-28T04:08:45.421Z,101342.94
2022-08-28T04:11:31.653Z,101354.16
2022-08-28T04:14:17.033Z,101357.19
2022-08-28T04:17:02.387Z,101349.59
2022-08-28T04:19:47.911Z,101354.63
2022-08-28T04:22:33.473Z,101351.84
2022-08-28T04:25:19.437Z,101346.25
2022-08-28T04:28:04.997Z,101348.44
2022-08-28T04:30:55.189Z,101352.41
2022-08-28T04:33:40.675Z,101362.25
2022-08-28T04:36:25.969Z,101355.38
2022-08-28T04:39:11.621Z,101355.75
2022-08-28T04:41:56.918Z,101365.50
2022-08-28T04:44:42.621Z,101362.41
2022-08-28T04:47:28.122Z,101364.03
2022-08-28T04:50:13.549Z,101366.75
2022-08-28T04:52:59.109Z,101365.66
2022-08-28T04:55:54.448Z,101371.41
2022-08-28T04:58:43.241Z,101368.75
2022-08-28T05:01:28.759Z,101373.94
2022-08-28T05:04:14.417Z,101373.56
2022-08-28T05:06:59.913Z,101375.50
2022-08-28T05:09:45.273Z,101371.97
2022-08-28T05:12:30.571Z,101379.69
2022-08-28T05:15:16.213Z,101373.03
2022-08-28T05:18:01.617Z,101372.00
2022-08-28T05:20:48.196Z,101385.66
2022-08-28T05:23:33.964Z,101384.09
2022-08-28T05:26:19.870Z,101382.88
2022-08-28T05:29:06.423Z,101380.22
2022-08-28T05:31:52.026Z,101381.94
2022-08-28T05:34:37.934Z,101381.06
2022-08-28T05:37:23.596Z,101377.44
2022-08-28T05:40:10.472Z,101382.97
2022-08-28T05:42:55.996Z,101369.72
2022-08-28T05:45:41.767Z,101391.50
2022-08-28T05:48:30.404Z,101392.84
2022-08-28T05:51:23.897Z,101386.75
2022-08-28T05:54:10.684Z,101391.94
2022-08-28T05:56:56.269Z,101393.88
2022-08-28T05:59:41.702Z,101394.13
2022-08-28T06:02:27.463Z,101404.34
2022-08-28T06:05:13.256Z,101402.34
2022-08-28T06:07:59.091Z,101399.44
2022-08-28T06:10:44.866Z,101409.72
2022-08-28T06:13:37.503Z,101406.34
2022-08-28T06:16:24.422Z,101408.19
2022-08-28T06:19:12.038Z,101391.69
2022-08-28T06:22:00.331Z,101395.69
2022-08-28T06:24:45.764Z,101410.50
2022-08-28T06:27:33.550Z,101403.22
2022-08-28T06:30:18.888Z,101420.06
2022-08-28T06:33:05.379Z,101409.06
2022-08-28T06:35:53.792Z,101424.94
2022-08-28T06:38:39.568Z,101414.09
2022-08-28T06:41:25.549Z,101417.31
2022-08-28T06:44:14.309Z,101420.16
2022-08-28T06:47:00.385Z,101416.69
2022-08-28T06:49:45.704Z,101413.00
2022-08-28T06:52:31.347Z,101418.56
2022-08-28T06:55:17.427Z,101418.56
2022-08-28T06:58:03.993Z,101423.50
2022-08-28T07:00:58.160Z,101423.94
2022-08-28T07:03:46.446Z,101434.78
2022-08-28T07:06:36.181Z,101436.63
2022-08-28T07:09:22.177Z,101429.81
2022-08-28T07:12:08.836Z,101422.44
2022-08-28T07:14:54.355Z,101429.00
2022-08-28T07:17:39.579Z,101429.84
2022-08-28T07:20:25.211Z,101435.16
2022-08-28T07:23:11.125Z,101426.56
2022-08-28T07:25:57.070Z,101411.66
2022-08-28T07:28:42.984Z,101426.19
2022-08-28T07:31:31.253Z,101430.34
2022-08-28T07:34:18.766Z,101427.69
2022-08-28T07:37:06.651Z,101431.28
2022-08-28T07:39:52.296Z,101439.94
2022-08-28T07:42:56.763Z,101430.22
2022-08-28T07:45:43.038Z,101431.50
2022-08-28T07:48:28.660Z,101439.81
2022-08-28T07:51:14.110Z,101431.63
2022-08-28T07:53:59.531Z,101445.72
2022-08-28T07:56:45.798Z,101443.09
2022-08-28T07:59:36.827Z,101441.94
2022-08-28T08:02:22.966Z,101446.72
2022-08-28T08:05:10.219Z,101447.56
2022-08-28T08:07:56.795Z,101446.63
2022-08-28T08:10:42.345Z,101439.22
2022-08-28T08:13:29.615Z,101438.81
2022-08-28T08:16:19.350Z,101426.50
2022-08-28T08:19:05.208Z,101446.41
2022-08-28T08:21:54.879Z,101436.38
2022-08-28T08:24:41.165Z,101450.00
2022-08-28T08:27:27.519Z,101449.78
2022-08-28T08:30:13.286Z,101439.78
2022-08-28T08:32:58.853Z,101428.50
2022-08-28T08:35:44.295Z,101433.88
2022-08-28T08:38:30.677Z,101430.59
2022-08-28T08:41:39.082Z,101439.78
2022-08-28T08:44:43.300Z,101422.13
2022-08-28T08:47:41.269Z,101438.09
2022-08-28T08:50:34.264Z,101439.84
2022-08-28T08:53:25.657Z,101437.22
2022-08-28T08:56:16.847Z,101442.19
2022-08-28T08:59:07.876Z,101436.94
2022-08-28T09:02:05.177Z,101442.25
2022-08-28T09:04:59.303Z,101436.28
2022-08-28T09:08:01.594Z,101434.31
2022-08-28T09:11:00.684Z,101442.28
2022-08-28T09:13:59.253Z,101444.03
2022-08-28T09:16:47.198Z,101430.09
2022-08-28T09:19:33.211Z,101430.28
2022-08-28T09:22:19.288Z,101441.16
2022-08-28T09:25:05.253Z,101435.16
2022-08-28T09:27:53.812Z,101430.66
2022-08-28T09:30:41.368Z,101446.13
2022-08-28T09:33:49.087Z,101435.28
2022-08-28T09:36:37.035Z,101417.16
2022-08-28T09:39:35.578Z,101428.34
2022-08-28T09:42:42.605Z,101434.44
2022-08-28T09:45:29.070Z,101438.59
2022-08-28T09:48:21.856Z,101448.00
2022-08-28T09:51:11.601Z,101440.78
2022-08-28T09:54:08.006Z,101438.19
2022-08-28T09:56:54.213Z,101434.44
2022-08-28T09:59:39.750Z,101428.44
2022-08-28T10:02:39.437Z,101427.56
2022-08-28T10:05:43.076Z,101419.25
2022-08-28T10:08:54.922Z,101423.41
2022-08-28T10:12:13.240Z,101424.31
2022-08-28T10:15:04.382Z,101429.22
2022-08-28T10:18:17.957Z,101425.22
2022-08-28T10:21:10.436Z,101427.81
2022-08-28T10:24:24.733Z,101416.19
2022-08-28T10:27:26.867Z,101408.69
2022-08-28T10:30:22.941Z,101419.66
2022-08-28T10:33:25.831Z,101422.59
2022-08-28T10:36:26.423Z,101434.97
2022-08-28T10:39:33.232Z,101431.44
2022-08-28T10:42:36.553Z,101423.66
2022-08-28T10:45:26.278Z,101417.78
2022-08-28T10:48:25.024Z,101422.69
2022-08-28T10:51:17.337Z,101397.72
2022-08-28T10:54:25.930Z,101403.41
2022-08-28T10:57:24.052Z,101415.69
2022-08-28T11:00:14.322Z,101414.81
2022-08-28T11:03:02.617Z,101404.09
2022-08-28T11:05:53.781Z,101411.78
2022-08-28T11:08:39.817Z,101397.22
2022-08-28T11:11:42.978Z,101402.03
2022-08-28T11:14:30.575Z,101407.97
2022-08-28T11:17:21.886Z,101420.13
2022-08-28T11:20:13.832Z,101409.19
2022-08-28T11:23:16.075Z,101426.47
2022-08-28T11:26:07.775Z,101410.13
2022-08-28T11:28:53.206Z,101416.34
2022-08-28T11:31:40.932Z,101432.28
2022-08-28T11:34:44.908Z,101413.44
2022-08-28T11:37:41.428Z,101422.38
2022-08-28T11:40:32.527Z,101418.63
2022-08-28T11:43:18.778Z,101419.00
2022-08-28T11:46:05.851Z,101399.31
2022-08-28T11:48:52.499Z,101410.81
2022-08-28T11:51:49.114Z,101384.41
2022-08-28T11:54:44.057Z,101396.00
2022-08-28T11:57:41.079Z,101417.94
2022-08-28T12:00:29.050Z,101423.41
2022-08-28T12:03:36.860Z,101405.47
2022-08-28T12:06:41.229Z,101407.47
2022-08-28T12:09:26.323Z,101399.91
2022-08-28T12:12:20.411Z,101398.91
2022-08-28T12:15:08.030Z,101394.69
2022-08-28T12:17:57.112Z,101400.34
2022-08-28T12:20:51.090Z,101407.19
2022-08-28T12:23:39.213Z,101396.34
2022-08-28T12:26:39.776Z,101395.91
2022-08-28T12:29:34.827Z,101386.25
2022-08-28T12:32:28.780Z,101399.09
2022-08-28T12:35:21.354Z,101399.78
2022-08-28T12:38:09.191Z,101400.66
2022-08-28T12:40:54.748Z,101389.78
2022-08-28T12:43:46.681Z,101397.91
2022-08-28T12:46:37.511Z,101391.59
2022-08-28T12:49:28.326Z,101378.34
2022-08-28T12:52:16.883Z,101382.94
2022-08-28T12:55:02.178Z,101388.72
2022-08-28T12:57:47.930Z,101382.38
2022-08-28T13:00:35.709Z,101375.38
2022-08-28T13:03:22.526Z,101385.28
2022-08-28T13:06:09.325Z,101387.84
2022-08-28T13:08:57.543Z,101377.25
2022-08-28T13:11:47.171Z,101360.91
2022-08-28T13:14:38.312Z,101377.56
2022-08-28T13:17:42.105Z,101384.50
2022-08-28T13:20:34.988Z,101371.50
2022-08-28T13:23:29.571Z,101365.59
2022-08-28T13:26:19.529Z,101373.63
2022-08-28T13:29:16.592Z,101363.19
2022-08-28T13:32:01.905Z,101363.28
2022-08-28T13:35:05.438Z,101363.81
2022-08-28T13:37:52.082Z,101361.31
2022-08-28T13:40:57.422Z,101367.13
2022-08-28T13:43:44.855Z,101359.97
2022-08-28T13:46:30.429Z,101361.53
2022-08-28T13:49:16.925Z,101358.78
2022-08-28T13:52:04.541Z,101365.34
2022-08-28T13:54:50.884Z,101352.19
2022-08-28T13:57:36.251Z,101353.06
2022-08-28T14:00:21.650Z,101355.28
2022-08-28T14:03:25.552Z,101354.38
2022-08-28T14:06:16.744Z,101352.69
2022-08-28T14:09:02.463Z,101349.19
2022-08-28T14:11:48.383Z,101354.28
2022-08-28T14:14:34.169Z,101353.06
2022-08-28T14:17:21.417Z,101356.00
2022-08-28T14:20:06.973Z,101355.41
2022-08-28T14:22:52.768Z,101364.94
2022-08-28T14:25:42.068Z,101352.16
2022-08-28T14:28:27.411Z,101352.78
2022-08-28T14:31:14.767Z,101361.03
2022-08-28T14:34:00.343Z,101342.22
2022-08-28T14:36:46.051Z,101344.91
2022-08-28T14:39:32.023Z,101359.59
2022-08-28T14:42:18.485Z,101352.16
2022-08-28T14:45:04.102Z,101343.84
2022-08-28T14:47:49.605Z,101345.03
2022-08-28T14:50:38.033Z,101338.09
2022-08-28T14:53:23.232Z,101332.59
2022-08-28T14:56:09.024Z,101338.94
2022-08-28T14:58:54.090Z,101348.38
2022-08-28T15:01:40.962Z,101340.16
2022-08-28T15:04:28.063Z,101353.59
2022-08-28T15:07:13.680Z,101339.91
2022-08-28T15:09:58.805Z,101348.91
2022-08-28T15:12:44.018Z,101350.19
2022-08-28T15:15:29.901Z,101344.84
2022-08-28T15:18:15.666Z,101347.78
2022-08-28T15:21:00.795Z,101350.94
2022-08-28T15:23:48.171Z,101342.06
2022-08-28T15:26:34.058Z,101353.66
2022-08-28T15:29:19.542Z,101352.16
2022-08-28T15:32:05.311Z,101354.59
2022-08-28T15:34:51.658Z,101355.38
2022-08-28T15:37:37.079Z,101365.63
2022-08-28T15:40:41.059Z,101349.81
2022-08-28T15:43:26.390Z,101358.34
2022-08-28T15:46:12.832Z,101366.69
2022-08-28T15:48:58.120Z,101360.50
2022-08-28T15:51:43.371Z,101371.53
2022-08-28T15:54:29.969Z,101364.84
2022-08-28T15:57:15.553Z,101362.66
2022-08-28T16:00:00.936Z,101373.66
2022-08-28T16:02:45.971Z,101378.41
2022-08-28T16:05:34.795Z,101382.97
2022-08-28T16:08:25.166Z,101388.56
2022-08-28T16:11:13.707Z,101389.53
2022-08-28T16:13:59.056Z,101393.81
2022-08-28T16:16:46.382Z,101402.69
2022-08-28T16:19:34.686Z,101399.50
2022-08-28T16:22:20.441Z,101418.56
2022-08-28T16:25:05.855Z,101408.69
2022-08-28T16:27:51.021Z,101417.00
2022-08-28T16:30:37.556Z,101426.31
2022-08-28T16:33:30.302Z,101419.53
2022-08-28T16:36:16.446Z,101414.38
2022-08-28T16:39:04.061Z,101424.41
2022-08-28T16:41:50.177Z,101409.84
2022-08-28T16:44:36.890Z,101424.16
2022-08-28T16:47:22.169Z,101421.56
2022-08-28T16:50:09.105Z,101416.56
2022-08-28T16:52:55.085Z,101421.72
2022-08-28T16:55:40.510Z,101419.47
2022-08-28T16:58:25.661Z,101425.59
2022-08-28T17:01:11.946Z,101428.50
2022-08-28T17:03:57.580Z,101425.06
2022-08-28T17:06:43.426Z,101420.69
2022-08-28T17:09:28.579Z,101425.00
2022-08-28T17:12:14.133Z,101426.03
2022-08-28T17:15:01.354Z,101431.81
2022-08-28T17:17:47.100Z,101428.75
2022-08-28T17:20:50.576Z,101429.00
2022-08-28T17:23:36.246Z,101430.94
2022-08-28T17:26:23.393Z,101438.47
2022-08-28T17:29:09.311Z,101432.75
2022-08-28T17:31:56.537Z,101427.78
2022-08-28T17:34:42.055Z,101426.91
2022-08-28T17:37:27.462Z,101435.25
2022-08-28T17:40:16.359Z,101439.13
2022-08-28T17:43:02.771Z,101441.56
2022-08-28T17:45:48.363Z,101444.31
2022-08-28T17:48:36.509Z,101442.69
2022-08-28T17:51:23.492Z,101459.84
2022-08-28T17:54:27.146Z,101451.75
2022-08-28T17:57:13.971Z,101462.16
2022-08-28T18:00:00.516Z,101458.91
2022-08-28T18:02:46.210Z,101456.50
2022-08-28T18:05:31.756Z,101457.34
2022-08-28T18:46:32.747Z,101484.56
2022-08-28T18:49:17.959Z,101486.41
2022-08-28T18:52:03.530Z,101493.50
2022-08-28T18:54:49.204Z,101489.84
2022-08-28T18:57:35.607Z,101501.47
2022-08-28T19:00:21.800Z,101503.47
2022-08-28T19:03:07.384Z,101501.69
2022-08-28T19:05:54.854Z,101500.78
2022-08-28T19:08:40.304Z,101510.41
2022-08-28T19:11:26.803Z,101509.00
2022-08-28T19:14:12.135Z,101507.50
2022-08-28T19:16:57.526Z,101513.66
2022-08-28T19:19:42.642Z,101514.47
2022-08-28T19:22:28.601Z,101511.53
2022-08-28T19:25:27.474Z,101515.53
2022-08-28T19:28:13.850Z,101521.09
2022-08-28T19:30:59.702Z,101523.34
2022-08-28T19:33:46.396Z,101534.34
2022-08-28T19:36:31.408Z,101527.13
2022-08-28T19:39:17.481Z,101530.25
2022-08-28T19:42:02.839Z,101532.13
2022-08-28T19:44:51.182Z,101536.66
2022-08-28T19:47:45.297Z,101542.34
2022-08-28T19:50:30.486Z,101540.22
2022-08-28T19:53:16.188Z,101551.16
2022-08-28T19:56:01.267Z,101553.03
2022-08-28T19:58:46.492Z,101549.56
2022-08-28T20:01:37.621Z,101554.03
2022-08-28T20:04:23.181Z,101547.00
2022-08-28T20:07:10.624Z,101555.91
2022-08-28T20:09:56.013Z,101551.81
2022-08-28T20:12:45.048Z,101561.03
2022-08-28T20:15:33.649Z,101556.84
2022-08-28T20:18:19.983Z,101553.00
2022-08-28T20:21:09.066Z,101554.97
2022-08-28T20:23:54.447Z,101551.13
2022-08-28T20:26:39.935Z,101550.78
2022-08-28T20:29:25.372Z,101562.56
2022-08-28T20:32:10.962Z,101557.44
2022-08-28T20:34:56.263Z,101555.22
2022-08-28T20:37:44.951Z,101555.97
2022-08-28T20:40:31.162Z,101553.97
2022-08-28T20:43:16.628Z,101554.16
2022-08-28T20:46:05.763Z,101564.63
2022-08-28T20:48:51.032Z,101557.81
2022-08-28T20:51:56.679Z,101561.47
2022-08-28T20:54:42.388Z,101557.69
2022-08-28T20:57:27.908Z,101567.72
2022-08-28T21:00:13.935Z,101566.09
2022-08-28T21:02:59.319Z,101578.59
2022-08-28T21:05:48.052Z,101563.78
2022-08-28T21:08:34.367Z,101578.25
2022-08-28T21:11:19.741Z,101572.41
2022-08-28T21:14:05.376Z,101576.09
2022-08-28T21:16:50.775Z,101573.03
2022-08-28T21:19:40.175Z,101573.31
2022-08-28T21:22:26.348Z,101576.00
2022-08-28T21:25:12.033Z,101575.88
2022-08-28T21:27:57.133Z,101583.16
2022-08-28T21:30:42.518Z,101581.47
2022-08-28T21:33:27.962Z,101581.94
2022-08-28T21:36:15.363Z,101581.97
2022-08-28T21:39:00.835Z,101591.94
2022-08-28T21:41:46.504Z,101585.72
2022-08-28T21:44:32.123Z,101586.56
2022-08-28T21:47:17.367Z,101585.88
2022-08-28T21:50:02.900Z,101589.22
2022-08-28T21:52:48.350Z,101588.59
2022-08-28T21:55:33.522Z,101588.22
2022-08-28T21:58:19.382Z,101594.41
2022-08-28T22:01:05.279Z,101587.78
2022-08-28T22:03:50.558Z,101586.56
2022-08-28T22:06:35.797Z,101583.53
2022-08-28T22:09:22.013Z,101587.53
2022-08-28T22:12:08.944Z,101592.25
2022-08-28T22:14:54.301Z,101593.03
2022-08-28T22:17:39.487Z,101585.25
2022-08-28T22:20:25.515Z,101588.66
2022-08-28T22:23:10.961Z,101589.59
2022-08-28T22:25:56.554Z,101591.91
2022-08-28T22:28:41.625Z,101600.69
2022-08-28T22:31:26.989Z,101597.38
2022-08-28T22:34:12.360Z,101598.56
2022-08-28T22:36:57.812Z,101595.13
2022-08-28T22:39:43.220Z,101607.91
2022-08-28T22:42:28.252Z,101597.34
2022-08-28T22:45:13.842Z,101603.09
2022-08-28T22:47:59.497Z,101601.16
2022-08-28T22:50:46.265Z,101601.84
2022-08-28T22:53:31.930Z,101606.94
2022-08-28T22:56:17.660Z,101607.72
2022-08-28T22:59:03.023Z,101602.81
2022-08-28T23:01:48.340Z,101604.19
2022-08-28T23:04:34.353Z,101599.81
2022-08-28T23:07:20.034Z,101595.28
2022-08-28T23:10:06.061Z,101598.41
2022-08-28T23:12:51.393Z,101597.91
2022-08-28T23:15:36.824Z,101596.97
2022-08-28T23:18:23.644Z,101592.31
2022-08-28T23:21:09.584Z,101594.41
2022-08-28T23:23:55.506Z,101594.63
2022-08-28T23:26:40.731Z,101593.94
2022-08-28T23:29:26.177Z,101593.84
2022-08-28T23:32:11.649Z,101593.00
2022-08-28T23:34:57.190Z,101589.78
2022-08-28T23:37:48.022Z,101582.78
2022-08-28T23:40:34.371Z,101579.56
2022-08-28T23:43:19.613Z,101577.03
2022-08-28T23:46:05.293Z,101584.72
2022-08-28T23:48:51.190Z,101574.28
2022-08-28T23:51:36.681Z,101567.09
2022-08-28T23:54:22.010Z,101566.72
2022-08-28T23:57:07.597Z,101566.81
2022-08-28T23:59:53.504Z,101569.31
